Time;durP1;ratioP1;P1;durP2;ratioP2;P2;SDS_P1;SDS_P2;PMS_P1;PMS_P2;Temp;Humidity;BMP_temperature;BMP_pressure;BME280_temperature;BME280_humidity;BME280_pressure;Samples;Min_cycle;Max_cycle;Signal;HPM_P1;HPM_P2
2021/12/26 00:00:24;;;;;;;;;23.33;19.00;;;;;12.74;74.45;100096.59;4980695;28;45286;-76
2021/12/26 00:02:50;;;;;;;;;18.33;18.33;;;;;12.74;74.74;100095.72;4987779;28;45345;-76
2021/12/26 00:05:15;;;;;;;;;22.75;21.00;;;;;12.71;74.42;100077.19;4976844;28;46164;-76
2021/12/26 00:07:41;;;;;;;;;22.33;21.00;;;;;12.73;74.41;100078.03;4977159;28;45156;-76
2021/12/26 00:10:07;;;;;;;;;20.33;19.00;;;;;12.67;74.51;100073.69;4977143;28;45386;-77
2021/12/26 00:12:33;;;;;;;;;27.33;24.00;;;;;12.70;74.32;100083.41;4982545;28;46301;-76
2021/12/26 00:14:58;;;;;;;;;22.67;21.00;;;;;12.70;74.34;100076.31;4995636;28;58645;-75
2021/12/26 00:17:23;;;;;;;;;27.00;20.50;;;;;12.68;74.18;100066.66;4987542;28;45429;-76
2021/12/26 00:19:49;;;;;;;;;27.33;22.67;;;;;12.65;74.27;100066.66;4976911;28;45998;-76
2021/12/26 00:22:14;;;;;;;;;23.33;19.33;;;;;12.69;74.22;100065.75;4975598;28;45315;-75
2021/12/26 00:24:40;;;;;;;;;20.00;17.67;;;;;12.68;74.14;100071.94;4989021;28;60981;-75
2021/12/26 00:27:05;;;;;;;;;22.67;20.00;;;;;12.60;74.29;100053.47;4975781;28;45489;-76
2021/12/26 00:29:31;;;;;;;;;20.00;19.67;;;;;12.66;74.36;100065.78;4976596;28;45911;-76
2021/12/26 00:31:56;;;;;;;;;19.33;19.33;;;;;12.68;74.23;100056.06;4981529;28;45315;-76
2021/12/26 00:34:21;;;;;;;;;27.67;20.00;;;;;12.70;74.11;100063.06;4985084;28;45326;-76
2021/12/26 00:36:47;;;;;;;;;25.33;21.33;;;;;12.72;74.24;100063.06;4975903;28;55359;-77
2021/12/26 00:39:15;;;;;;;;;20.33;20.33;;;;;12.71;74.31;100056.88;4976582;28;53670;-76
2021/12/26 00:41:40;;;;;;;;;25.00;20.33;;;;;12.71;74.11;100056.88;4975291;28;45297;-75
2021/12/26 00:44:06;;;;;;;;;25.33;23.33;;;;;12.72;74.23;100052.47;4987543;28;48874;-76
2021/12/26 00:46:32;;;;;;;;;26.33;18.00;;;;;12.73;74.36;100051.56;4996312;28;45207;-75
2021/12/26 00:48:57;;;;;;;;;27.00;22.00;;;;;12.69;74.27;100044.56;4995125;28;45322;-75
2021/12/26 00:51:23;;;;;;;;;23.67;19.67;;;;;12.72;74.38;100047.16;4995781;28;54658;-76
2021/12/26 00:53:48;;;;;;;;;27.33;20.67;;;;;12.72;74.35;100048.03;4976782;28;48528;-76
2021/12/26 00:56:15;;;;;;;;;22.33;19.67;;;;;12.73;74.23;100055.13;4998784;28;52560;-77
2021/12/26 00:58:40;;;;;;;;;24.67;21.00;;;;;12.76;74.27;100057.72;4999651;28;45472;-76
2021/12/26 01:01:05;;;;;;;;;24.75;21.75;;;;;12.75;73.95;100057.75;4999812;28;45386;-76
2021/12/26 01:03:31;;;;;;;;;23.00;19.67;;;;;12.76;74.36;100056.84;4998446;28;54826;-77
2021/12/26 01:05:56;;;;;;;;;29.00;24.00;;;;;12.76;74.12;100056.84;4994266;28;57033;-76
2021/12/26 01:08:26;;;;;;;;;23.33;21.33;;;;;12.72;74.27;100049.81;4979807;28;45286;-76
2021/12/26 01:10:57;;;;;;;;;26.00;22.00;;;;;12.74;74.24;100048.91;4980357;28;45450;-76
2021/12/26 01:13:31;;;;;;;;;22.00;18.33;;;;;12.73;74.02;100052.47;4998314;28;46530;-76
2021/12/26 01:16:03;;;;;;;;;21.33;21.00;;;;;12.72;74.12;100049.81;4997593;28;45565;-76
2021/12/26 01:18:34;;;;;;;;;30.00;23.67;;;;;12.75;74.11;100050.66;4999398;28;45473;-76
2021/12/26 01:21:15;;;;;;;;;27.33;20.33;;;;;12.71;73.94;100037.47;4998225;28;45261;-76
2021/12/26 01:23:40;;;;;;;;;28.67;23.33;;;;;12.78;73.88;100055.03;4997787;28;45640;-77
2021/12/26 01:26:09;;;;;;;;;23.50;20.00;;;;;12.79;74.11;100057.69;4998414;28;57634;-76
2021/12/26 01:28:37;;;;;;;;;30.33;22.67;;;;;12.79;74.12;100056.81;4987025;28;45484;-76
2021/12/26 01:31:03;;;;;;;;;22.00;20.33;;;;;12.79;73.83;100059.47;4991974;28;45176;-76
2021/12/26 01:33:28;;;;;;;;;26.33;22.00;;;;;12.81;74.21;100053.25;4998986;28;48785;-75
2021/12/26 01:35:54;;;;;;;;;27.00;23.00;;;;;12.79;73.91;100046.22;5000435;28;45501;-76
2021/12/26 01:38:20;;;;;;;;;27.33;21.67;;;;;12.83;74.12;100050.56;4997543;28;45527;-77
2021/12/26 01:40:51;;;;;;;;;19.33;17.67;;;;;12.80;73.67;100047.97;4997951;28;45365;-76
2021/12/26 01:43:17;;;;;;;;;26.67;22.33;;;;;12.79;73.71;100039.16;4961109;28;45612;-76
2021/12/26 01:45:46;;;;;;;;;20.67;18.00;;;;;12.81;73.53;100052.38;4979006;28;45371;-77
2021/12/26 01:48:18;;;;;;;;;25.00;22.00;;;;;12.78;73.86;100045.34;4978768;28;45374;-76
2021/12/26 01:50:46;;;;;;;;;27.33;20.33;;;;;12.76;73.74;100039.16;4961778;28;45512;-76
2021/12/26 01:53:15;;;;;;;;;25.00;20.33;;;;;12.83;73.61;100050.56;4981643;28;47603;-76
2021/12/26 01:55:43;;;;;;;;;24.33;18.67;;;;;12.83;73.58;100047.91;4960205;28;45586;-76
2021/12/26 01:58:22;;;;;;;;;26.00;20.00;;;;;12.79;73.74;100039.16;4979142;28;45235;-76
2021/12/26 02:03:55;;;;;;;;;26.33;20.00;;;;;12.80;73.84;100043.56;4978374;28;46031;-76
2021/12/26 02:06:21;;;;;;;;;20.50;19.00;;;;;12.85;73.49;100056.75;4996712;28;45454;-76
2021/12/26 02:08:52;;;;;;;;;28.67;22.33;;;;;12.84;73.74;100057.66;4998031;28;45548;-77
2021/12/26 02:11:20;;;;;;;;;23.75;22.50;;;;;12.84;73.66;100050.56;4990765;28;45306;-76
2021/12/26 02:13:48;;;;;;;;;25.67;21.33;;;;;12.85;73.44;100060.28;4990828;28;59356;-76
2021/12/26 02:16:17;;;;;;;;;26.33;25.67;;;;;12.85;73.77;100060.28;4978056;28;55721;-76
2021/12/26 02:18:45;;;;;;;;;24.00;21.67;;;;;12.87;73.30;100051.44;4978439;28;49481;-76
2021/12/26 02:21:33;;;;;;;;;27.00;22.67;;;;;12.85;73.20;100059.41;4978826;28;45236;-76
2021/12/26 02:24:21;;;;;;;;;20.67;18.00;;;;;12.84;73.57;100058.53;4977934;28;46343;-76
2021/12/26 02:29:39;;;;;;;;;22.00;19.67;;;;;12.80;73.50;100046.19;4997634;28;45500;-76
2021/12/26 02:32:08;;;;;;;;;26.00;23.33;;;;;12.80;73.58;100054.16;4996976;28;55492;-77
2021/12/26 02:34:36;;;;;;;;;29.00;25.67;;;;;12.79;73.50;100040.94;4997273;28;46563;-76
2021/12/26 02:37:04;;;;;;;;;26.33;22.67;;;;;12.83;73.84;100047.91;4989682;28;45511;-76
2021/12/26 02:39:33;;;;;;;;;29.50;24.50;;;;;12.82;74.22;100051.47;4990935;28;57692;-77
2021/12/26 02:42:01;;;;;;;;;24.33;20.00;;;;;12.78;74.10;100041.78;4972391;28;45575;-76
2021/12/26 02:44:26;;;;;;;;;24.00;21.00;;;;;12.74;74.43;100035.69;4997554;28;50021;-76
2021/12/26 02:46:51;;;;;;;;;29.75;25.00;;;;;12.75;74.60;100045.38;4997668;28;51511;-76
2021/12/26 02:49:24;;;;;;;;;23.67;20.67;;;;;12.71;74.67;100038.34;4997695;28;50882;-75
2021/12/26 02:51:50;;;;;;;;;26.67;24.33;;;;;12.70;74.51;100031.28;4998018;28;45521;-76
2021/12/26 02:54:15;;;;;;;;;25.67;23.67;;;;;12.74;74.65;100032.16;4997149;28;46500;-75
2021/12/26 02:56:41;;;;;;;;;23.00;20.33;;;;;12.71;74.27;100032.16;4997206;28;49347;-76
2021/12/26 02:59:06;;;;;;;;;29.00;23.50;;;;;12.72;74.52;100036.56;4996240;28;45349;-76
2021/12/26 03:01:31;;;;;;;;;29.67;21.00;;;;;12.69;74.48;100032.19;4997082;28;54361;-76
2021/12/26 03:03:57;;;;;;;;;29.33;21.33;;;;;12.70;74.35;100031.28;4996947;28;53859;-76
2021/12/26 03:06:28;;;;;;;;;26.50;22.25;;;;;12.71;74.14;100030.41;4997062;28;45326;-75
2021/12/26 03:08:55;;;;;;;;;27.00;20.00;;;;;12.72;74.57;100036.56;5022696;22;45647;-76
2021/12/26 03:11:20;;;;;;;;;26.67;24.33;;;;;12.72;74.36;100034.78;5021449;28;45661;-76
2021/12/26 03:13:46;;;;;;;;;20.33;18.67;;;;;12.70;74.20;100031.28;5018497;28;45607;-77
2021/12/26 03:16:11;;;;;;;;;24.67;21.33;;;;;12.69;74.28;100040.13;5016930;28;45384;-76
2021/12/26 03:18:45;;;;;;;;;22.00;20.00;;;;;12.70;74.66;100039.25;5028275;28;45502;-76
2021/12/26 03:21:11;;;;;;;;;24.67;21.00;;;;;12.70;74.37;100030.41;4994623;28;45413;-76
2021/12/26 03:23:36;;;;;;;;;20.67;20.67;;;;;12.66;74.48;100023.38;4999138;28;47473;-76
2021/12/26 03:26:03;;;;;;;;;27.67;21.67;;;;;12.68;74.64;100037.50;5016547;28;60334;-75
2021/12/26 03:28:29;;;;;;;;;23.33;20.00;;;;;12.64;74.60;100031.38;5016994;28;45372;-76
2021/12/26 03:30:54;;;;;;;;;25.00;21.33;;;;;12.57;74.69;100022.63;5017028;28;45603;-76
2021/12/26 03:33:20;;;;;;;;;23.33;19.67;;;;;12.65;75.11;100035.75;4999158;28;46887;-76
2021/12/26 03:35:45;;;;;;;;;24.00;21.67;;;;;12.66;74.98;100033.97;5016621;28;45448;-75
2021/12/26 03:38:14;;;;;;;;;24.00;22.33;;;;;12.65;75.00;100041.06;5017147;28;45292;-76
2021/12/26 03:40:40;;;;;;;;;28.25;20.75;;;;;12.65;74.65;100034.88;5017119;28;45474;-75
2021/12/26 03:43:06;;;;;;;;;26.00;20.67;;;;;12.65;74.77;100033.09;5016456;28;60575;-75
2021/12/26 03:45:31;;;;;;;;;22.67;21.67;;;;;12.66;74.45;100032.22;5016459;28;45413;-76
2021/12/26 03:47:57;;;;;;;;;27.00;21.00;;;;;12.67;74.59;100035.72;5016957;28;46565;-76
2021/12/26 03:50:23;;;;;;;;;26.00;20.00;;;;;12.66;74.42;100037.50;4999245;28;45279;-75
2021/12/26 03:52:54;;;;;;;;;25.33;23.33;;;;;12.68;74.18;100029.56;5016843;28;45749;-76
2021/12/26 03:55:19;;;;;;;;;22.00;22.00;;;;;12.67;74.41;100028.66;5014126;28;45498;-75
2021/12/26 03:57:45;;;;;;;;;22.00;18.00;;;;;12.66;74.23;100029.56;5001530;28;45683;-76
2021/12/26 04:00:11;;;;;;;;;29.67;24.33;;;;;12.65;74.53;100022.53;5026015;28;53436;-76
2021/12/26 04:02:36;;;;;;;;;28.33;21.67;;;;;12.65;74.49;100026.94;5016213;28;46562;-75
2021/12/26 04:05:02;;;;;;;;;25.33;24.00;;;;;12.65;74.51;100024.28;5015981;28;59737;-76
2021/12/26 04:07:27;;;;;;;;;23.33;21.00;;;;;12.64;74.57;100027.84;5023284;28;45264;-76
2021/12/26 04:09:52;;;;;;;;;22.67;22.33;;;;;12.63;74.59;100021.66;5022525;28;45754;-75
2021/12/26 04:12:18;;;;;;;;;24.67;22.33;;;;;12.64;74.31;100019.91;5012179;28;62652;-76
2021/12/26 04:14:43;;;;;;;;;24.67;19.33;;;;;12.59;74.46;100017.28;5021444;28;45383;-75
2021/12/26 04:17:09;;;;;;;;;26.67;21.00;;;;;12.63;74.48;100013.72;5017887;28;45696;-76
2021/12/26 04:19:36;;;;;;;;;29.00;21.00;;;;;12.63;74.29;100012.84;5015840;28;52334;-76
2021/12/26 04:22:03;;;;;;;;;18.00;16.00;;;;;12.63;74.07;100008.44;4998918;28;45619;-76
2021/12/26 04:24:30;;;;;;;;;24.67;17.67;;;;;12.64;74.26;100011.94;5016379;28;45289;-77
2021/12/26 04:26:55;;;;;;;;;20.00;19.67;;;;;12.62;74.14;100011.06;5016405;28;45778;-76
2021/12/26 04:29:21;;;;;;;;;22.67;18.00;;;;;12.63;74.36;100012.84;5016809;28;45278;-76
2021/12/26 04:31:46;;;;;;;;;24.00;20.00;;;;;12.62;74.22;100006.66;5019601;28;59627;-76
2021/12/26 04:34:11;;;;;;;;;23.33;19.67;;;;;12.59;74.27;99996.97;5028275;28;58228;-76
2021/12/26 04:36:37;;;;;;;;;22.00;18.67;;;;;12.61;74.19;100001.38;5023341;28;46699;-75
2021/12/26 04:39:03;;;;;;;;;26.67;20.67;;;;;12.64;74.23;100001.34;5032901;28;45268;-76
2021/12/26 04:41:28;;;;;;;;;26.67;20.67;;;;;12.65;74.46;100008.41;5019632;28;46687;-75
2021/12/26 04:43:54;;;;;;;;;25.25;22.25;;;;;12.63;74.36;99997.84;5019810;28;45234;-75
2021/12/26 04:46:19;;;;;;;;;20.33;19.00;;;;;12.63;74.05;100008.44;5018248;28;45373;-76
2021/12/26 04:48:45;;;;;;;;;25.67;20.00;;;;;12.63;74.27;99996.97;5019241;28;47332;-76
2021/12/26 04:51:10;;;;;;;;;22.00;21.00;;;;;12.64;74.26;99996.94;5019239;28;45610;-76
2021/12/26 04:53:36;;;;;;;;;27.33;23.67;;;;;12.64;74.39;99996.06;5018797;28;45493;-76
2021/12/26 04:56:02;;;;;;;;;29.67;24.00;;;;;12.65;74.47;99988.09;5019177;28;45451;-76
2021/12/26 04:58:27;;;;;;;;;21.25;20.00;;;;;12.65;74.36;99984.56;5019618;28;45416;-76
2021/12/26 05:00:53;;;;;;;;;24.00;20.00;;;;;12.65;74.18;99997.81;5031208;28;61575;-76
2021/12/26 05:03:18;;;;;;;;;20.00;17.67;;;;;12.66;74.45;99986.31;5018832;28;60045;-76
2021/12/26 05:05:44;;;;;;;;;23.67;21.33;;;;;12.68;74.55;99984.53;5001364;28;48603;-77
2021/12/26 05:08:09;;;;;;;;;25.67;21.33;;;;;12.66;74.41;99978.38;5019260;28;45509;-76
2021/12/26 05:10:35;;;;;;;;;25.67;19.67;;;;;12.67;74.51;99978.34;5018977;28;47121;-76
2021/12/26 05:13:01;;;;;;;;;24.33;20.67;;;;;12.66;74.27;99979.25;5015691;28;45552;-75
2021/12/26 05:15:26;;;;;;;;;21.67;19.67;;;;;12.67;74.47;99981.00;5001242;28;45479;-77
2021/12/26 05:17:52;;;;;;;;;25.00;22.33;;;;;12.65;74.44;99981.91;5019067;28;45538;-76
2021/12/26 05:20:18;;;;;;;;;23.00;20.33;;;;;12.66;74.58;99981.88;5001075;28;47232;-76
2021/12/26 05:22:44;;;;;;;;;25.67;21.33;;;;;12.67;74.28;99982.75;5018714;28;45377;-75
2021/12/26 05:25:10;;;;;;;;;28.33;22.00;;;;;12.65;74.60;99974.84;5018951;28;45154;-76
2021/12/26 05:27:35;;;;;;;;;23.67;21.33;;;;;12.66;74.31;99981.00;5008064;28;56408;-77
2021/12/26 05:30:01;;;;;;;;;22.67;19.67;;;;;12.66;74.36;99981.00;5018173;28;62423;-75
2021/12/26 05:32:26;;;;;;;;;27.00;22.67;;;;;12.65;74.49;99980.13;5018722;28;45313;-76
2021/12/26 05:34:52;;;;;;;;;22.00;19.33;;;;;12.66;74.59;99978.38;5018339;28;51869;-76
2021/12/26 05:37:17;;;;;;;;;20.00;17.33;;;;;12.66;74.23;99970.41;5019144;28;45290;-76
2021/12/26 05:39:45;;;;;;;;;21.00;17.67;;;;;12.61;74.56;99961.66;5017930;28;56214;-75
2021/12/26 05:42:16;;;;;;;;;20.00;17.67;;;;;12.67;74.52;99973.03;5024078;28;45426;-75
2021/12/26 05:44:45;;;;;;;;;21.33;19.00;;;;;12.65;74.52;99971.31;5023629;28;45263;-75
2021/12/26 05:47:10;;;;;;;;;20.67;19.33;;;;;12.61;74.32;99962.53;5018756;28;45626;-76
2021/12/26 05:49:36;;;;;;;;;19.67;19.00;;;;;12.64;74.24;99973.09;5028369;28;46609;-76
2021/12/26 05:52:01;;;;;;;;;20.67;17.67;;;;;12.64;74.33;99977.53;5013399;28;58718;-75
2021/12/26 05:54:26;;;;;;;;;22.00;16.67;;;;;12.63;74.32;99967.81;5019194;28;56692;-74
2021/12/26 05:56:52;;;;;;;;;21.00;19.00;;;;;12.62;74.37;99974.88;5020078;28;53474;-74
2021/12/26 05:59:17;;;;;;;;;22.67;18.33;;;;;12.64;74.47;99977.53;5012148;28;64321;-75
2021/12/26 06:01:42;;;;;;;;;20.00;19.00;;;;;12.63;74.13;99981.06;5016279;28;51919;-76
2021/12/26 06:04:08;;;;;;;;;24.33;19.00;;;;;12.62;74.29;99980.16;5012855;28;46858;-74
2021/12/26 06:06:33;;;;;;;;;27.33;19.67;;;;;12.64;74.54;99980.16;5011653;28;46070;-74
2021/12/26 06:08:59;;;;;;;;;22.00;20.33;;;;;12.65;74.30;99976.63;5014786;28;46050;-75
2021/12/26 06:11:24;;;;;;;;;18.00;17.00;;;;;12.64;74.43;99978.41;5026137;28;45463;-75
2021/12/26 06:13:49;;;;;;;;;23.00;19.33;;;;;12.66;74.41;99975.72;5007955;28;48652;-76
2021/12/26 06:16:15;;;;;;;;;25.00;20.67;;;;;12.66;74.27;99973.06;5017240;28;53222;-75
2021/12/26 06:18:40;;;;;;;;;25.33;23.67;;;;;12.66;74.28;99979.25;5017789;28;45309;-76
2021/12/26 06:21:06;;;;;;;;;22.67;17.00;;;;;12.62;74.28;99964.28;4999901;28;59468;-75
2021/12/26 06:23:31;;;;;;;;;17.33;14.00;;;;;12.61;74.42;99973.13;5016620;28;53706;-76
2021/12/26 06:25:56;;;;;;;;;22.67;17.00;;;;;12.63;74.32;99976.66;5000550;28;45270;-75
2021/12/26 06:28:22;;;;;;;;;17.33;17.33;;;;;12.64;74.13;99974.88;5017280;28;58932;-75
2021/12/26 06:30:47;;;;;;;;;19.33;16.00;;;;;12.65;74.16;99974.84;5018076;28;45337;-76
2021/12/26 06:33:13;;;;;;;;;19.00;19.00;;;;;12.64;74.34;99972.22;5017732;28;45204;-76
2021/12/26 06:35:38;;;;;;;;;21.00;19.33;;;;;12.65;74.03;99973.97;5004205;28;47907;-76
2021/12/26 06:38:03;;;;;;;;;20.33;18.33;;;;;12.63;74.39;99968.69;5023028;28;53424;-77
2021/12/26 06:40:29;;;;;;;;;17.67;16.33;;;;;12.64;74.27;99972.22;5014351;28;58146;-77
2021/12/26 06:42:54;;;;;;;;;19.67;17.67;;;;;12.65;74.41;99979.28;5011766;28;46049;-77
2021/12/26 06:45:20;;;;;;;;;22.33;19.00;;;;;12.65;74.08;99972.19;4996870;28;53256;-76
2021/12/26 06:47:50;;;;;;;;;19.67;17.67;;;;;12.67;74.22;99972.16;5015417;28;45515;-83
2021/12/26 06:50:16;;;;;;;;;20.00;17.67;;;;;12.58;73.95;99979.34;4991333;28;45478;-86
2021/12/26 06:52:42;;;;;;;;;20.67;18.00;;;;;12.45;74.46;99963.59;4981110;28;45815;-80
2021/12/26 06:55:10;;;;;;;;;18.33;14.67;;;;;12.31;75.16;99969.03;4997284;28;45614;-76
2021/12/26 06:57:36;;;;;;;;;20.33;16.33;;;;;12.19;76.07;99967.38;5015612;28;47610;-81
2021/12/26 07:00:03;;;;;;;;;23.00;15.67;;;;;12.12;76.30;99967.44;5015885;28;45404;-75
2021/12/26 07:02:28;;;;;;;;;15.67;15.00;;;;;12.04;76.77;99979.00;5007538;28;45510;-74
2021/12/26 07:04:54;;;;;;;;;13.33;13.33;;;;;11.97;76.94;99974.63;5010411;28;54351;-76
2021/12/26 07:07:20;;;;;;;;;21.00;16.75;;;;;11.91;76.72;99972.03;5009207;28;59070;-75
2021/12/26 07:09:46;;;;;;;;;19.75;17.00;;;;;11.88;76.82;99963.22;5010149;28;45996;-84
2021/12/26 07:12:24;;;;;;;;;15.00;12.00;;;;;11.83;77.19;99970.34;4988059;28;45644;-85
2021/12/26 07:14:50;;;;;;;;;12.67;12.67;;;;;11.82;77.17;99958.88;4997158;28;45488;-83
2021/12/26 07:17:15;;;;;;;;;12.00;8.67;;;;;11.80;77.81;99966.78;5013808;28;63516;-83
2021/12/26 07:19:41;;;;;;;;;15.67;11.33;;;;;11.82;77.23;99971.22;4997611;28;45421;-84
2021/12/26 07:22:07;;;;;;;;;12.00;12.00;;;;;11.83;77.52;99973.88;5008361;28;54669;-84
2021/12/26 07:24:33;;;;;;;;;14.00;11.33;;;;;11.86;77.53;99973.84;5016630;28;45440;-82
2021/12/26 07:26:58;;;;;;;;;11.00;11.00;;;;;11.89;77.08;99979.13;5013546;28;59757;-83
2021/12/26 07:29:24;;;;;;;;;10.00;10.00;;;;;11.88;77.04;99985.31;4993819;28;60264;-83
2021/12/26 07:31:49;;;;;;;;;11.67;11.00;;;;;11.86;77.39;99975.59;4988746;28;45509;-81
2021/12/26 07:34:14;;;;;;;;;8.67;6.33;;;;;11.95;77.21;99984.34;5013946;28;52386;-82
2021/12/26 07:36:40;;;;;;;;;13.67;11.00;;;;;11.96;77.07;99978.16;4993191;28;46444;-81
2021/12/26 07:39:05;;;;;;;;;12.67;9.00;;;;;11.97;77.10;99977.28;5009769;28;46468;-83
2021/12/26 07:41:31;;;;;;;;;11.00;10.00;;;;;12.00;76.70;99979.03;5012280;28;45456;-75
2021/12/26 07:43:56;;;;;;;;;13.00;11.67;;;;;12.02;76.66;99977.22;5005250;28;45752;-75
2021/12/26 07:46:21;;;;;;;;;11.67;10.00;;;;;12.12;76.70;99989.50;4993568;28;46506;-77
2021/12/26 07:48:47;;;;;;;;;16.33;12.33;;;;;12.14;76.47;99974.47;5011233;28;45610;-75
2021/12/26 07:51:12;;;;;;;;;16.00;13.00;;;;;12.23;76.40;99978.81;5014277;28;45501;-75
2021/12/26 07:53:38;;;;;;;;;11.67;10.00;;;;;12.27;76.53;99976.13;5007992;28;45571;-76
2021/12/26 07:56:03;;;;;;;;;12.67;11.67;;;;;12.26;76.52;99976.16;5007368;28;45873;-76
2021/12/26 07:58:29;;;;;;;;;16.33;11.67;;;;;12.38;76.38;99991.03;5023094;28;46011;-76
2021/12/26 08:00:54;;;;;;;;;11.00;11.00;;;;;12.42;76.29;99988.34;5010296;28;54647;-76
2021/12/26 08:03:20;;;;;;;;;17.00;14.00;;;;;12.46;76.49;99994.47;4995712;28;45449;-76
2021/12/26 08:05:45;;;;;;;;;14.00;12.33;;;;;12.48;76.23;100001.50;4999059;28;45507;-75
2021/12/26 08:08:10;;;;;;;;;14.33;10.33;;;;;12.51;76.11;99993.50;5017288;28;45441;-75
2021/12/26 08:10:36;;;;;;;;;19.33;11.00;;;;;12.55;76.05;99997.03;5017272;28;52683;-76
2021/12/26 08:13:01;;;;;;;;;14.33;14.33;;;;;12.57;76.08;100001.44;5017342;28;45487;-77
2021/12/26 08:15:27;;;;;;;;;14.67;11.33;;;;;12.61;76.17;100004.03;5017336;28;59894;-76
2021/12/26 08:17:52;;;;;;;;;13.33;12.00;;;;;12.63;75.91;99996.97;5019184;28;57894;-75
2021/12/26 08:20:17;;;;;;;;;17.67;14.33;;;;;12.65;76.06;99988.09;5020016;28;45422;-75
2021/12/26 08:22:43;;;;;;;;;14.00;12.33;;;;;12.67;75.97;99993.34;5019528;28;54325;-75
2021/12/26 08:25:09;;;;;;;;;15.67;15.00;;;;;12.68;75.93;100000.44;5019641;28;45427;-76
2021/12/26 08:27:34;;;;;;;;;13.00;12.00;;;;;12.70;76.10;99999.50;5019611;28;45360;-77
2021/12/26 08:30:00;;;;;;;;;11.00;10.00;;;;;12.72;75.70;100008.31;5019802;28;45897;-76
2021/12/26 08:32:27;;;;;;;;;16.67;11.00;;;;;12.71;75.90;100006.56;5018605;28;45420;-76
2021/12/26 08:34:52;;;;;;;;;16.33;12.67;;;;;12.76;75.61;99999.44;5019426;28;46152;-75
2021/12/26 08:37:18;;;;;;;;;11.00;11.00;;;;;12.80;75.62;100008.22;5002256;28;45290;-76
2021/12/26 08:39:43;;;;;;;;;13.00;12.00;;;;;12.78;75.77;100007.34;5019568;28;45291;-75
2021/12/26 08:42:10;;;;;;;;;12.00;11.33;;;;;12.77;75.56;100005.59;5020020;28;45463;-76
2021/12/26 08:44:35;;;;;;;;;18.00;13.00;;;;;12.85;75.46;100014.38;4985522;28;45360;-75
2021/12/26 08:47:01;;;;;;;;;13.67;12.00;;;;;12.84;75.64;100008.19;5019542;28;45439;-77
2021/12/26 08:49:27;;;;;;;;;16.33;14.33;;;;;12.90;75.26;100020.50;5019588;28;45384;-75
2021/12/26 08:51:52;;;;;;;;;18.00;15.00;;;;;12.90;75.42;100020.50;5001936;28;45405;-75
2021/12/26 08:54:18;;;;;;;;;12.33;9.33;;;;;12.93;75.52;100020.44;5019121;28;45574;-75
2021/12/26 08:56:44;;;;;;;;;13.00;10.67;;;;;12.90;75.40;100023.13;5019365;28;45303;-76
2021/12/26 08:59:09;;;;;;;;;15.67;10.33;;;;;12.95;75.59;100020.44;5001901;28;45275;-76
2021/12/26 09:01:34;;;;;;;;;14.00;12.00;;;;;12.93;75.38;100020.44;5019370;28;45224;-75
2021/12/26 09:04:00;;;;;;;;;14.33;14.33;;;;;12.96;75.31;100016.88;5018576;28;62309;-75
2021/12/26 09:06:25;;;;;;;;;13.67;13.67;;;;;13.03;75.49;100023.84;5000780;28;54630;-75
2021/12/26 09:08:51;;;;;;;;;12.00;12.00;;;;;13.04;75.25;100020.31;5019182;28;45587;-75
2021/12/26 09:11:16;;;;;;;;;12.67;11.33;;;;;13.06;75.29;100026.47;5018889;28;50311;-76
2021/12/26 09:13:43;;;;;;;;;13.00;11.00;;;;;13.08;75.18;100035.28;5015543;28;47637;-76
2021/12/26 09:16:08;;;;;;;;;13.33;11.67;;;;;13.07;74.94;100034.41;5017921;28;45350;-77
2021/12/26 09:18:34;;;;;;;;;17.67;14.67;;;;;13.08;75.11;100032.63;5018768;28;53731;-76
2021/12/26 09:20:59;;;;;;;;;12.67;11.67;;;;;13.14;75.15;100042.28;5018574;28;49140;-75
2021/12/26 09:23:24;;;;;;;;;14.00;11.67;;;;;13.15;75.14;100044.91;5018405;28;61859;-76
2021/12/26 09:25:50;;;;;;;;;21.67;17.00;;;;;13.16;75.00;100046.69;5018704;28;45356;-75
2021/12/26 09:28:15;;;;;;;;;18.00;13.33;;;;;13.16;75.43;100035.22;5019426;28;45365;-75
2021/12/26 09:30:41;;;;;;;;;16.00;13.33;;;;;13.17;75.28;100044.91;5018804;28;45398;-75
2021/12/26 09:33:06;;;;;;;;;16.33;14.33;;;;;13.18;74.78;100036.94;5018608;28;46587;-75
2021/12/26 09:35:32;;;;;;;;;10.67;10.67;;;;;13.23;75.12;100045.72;5018776;28;45298;-75
2021/12/26 09:37:57;;;;;;;;;16.33;13.67;;;;;13.25;75.17;100051.00;5000546;28;46892;-76
2021/12/26 09:40:22;;;;;;;;;12.00;10.33;;;;;13.27;75.15;100039.50;5018885;28;45410;-75
2021/12/26 09:42:48;;;;;;;;;11.67;11.67;;;;;13.27;75.15;100043.94;5017928;28;62696;-75
2021/12/26 09:45:13;;;;;;;;;11.00;11.00;;;;;13.32;74.87;100050.94;5018140;28;58350;-79
2021/12/26 09:47:39;;;;;;;;;16.67;12.33;;;;;13.30;75.00;100044.75;5017884;28;57451;-75
2021/12/26 09:50:06;;;;;;;;;12.67;7.67;;;;;13.34;74.66;100045.59;5018464;28;45317;-75
2021/12/26 09:52:31;;;;;;;;;9.67;9.67;;;;;13.36;74.63;100042.00;5018376;28;46698;-75
2021/12/26 09:54:56;;;;;;;;;15.33;11.00;;;;;13.40;74.57;100047.28;5018200;28;45560;-77
2021/12/26 09:57:23;;;;;;;;;13.33;11.00;;;;;13.40;74.42;100050.81;5018173;28;55633;-77
2021/12/26 09:59:48;;;;;;;;;9.67;9.67;;;;;13.43;74.75;100055.22;5018603;28;45558;-75
2021/12/26 10:02:14;;;;;;;;;13.00;12.00;;;;;13.43;74.89;100040.19;5018425;28;46255;-76
2021/12/26 10:04:40;;;;;;;;;14.00;13.00;;;;;13.46;74.75;100045.44;5018265;28;45427;-77
2021/12/26 10:07:11;;;;;;;;;15.00;14.67;;;;;13.49;74.58;100049.81;5018591;28;45360;-75
2021/12/26 10:09:41;;;;;;;;;16.67;14.00;;;;;13.46;74.34;100048.06;5018306;28;45234;-76
2021/12/26 10:12:07;;;;;;;;;14.33;12.00;;;;;13.48;74.45;100046.31;5016058;28;45680;-76
2021/12/26 10:14:34;;;;;;;;;16.00;12.33;;;;;13.51;74.27;100054.19;5017137;28;45376;-75
2021/12/26 10:17:08;;;;;;;;;10.00;10.00;;;;;13.50;74.43;100047.16;5018331;28;45352;-76
2021/12/26 10:19:38;;;;;;;;;12.67;10.00;;;;;13.48;74.01;100038.34;5018304;28;45452;-76
2021/12/26 10:22:04;;;;;;;;;12.67;10.33;;;;;13.53;74.03;100036.50;5018242;28;46629;-77
2021/12/26 10:24:41;;;;;;;;;9.67;8.67;;;;;13.53;74.43;100030.31;5018173;28;45373;-76
2021/12/26 10:27:11;;;;;;;;;10.00;10.00;;;;;13.53;74.02;100031.22;5017045;28;45491;-75
2021/12/26 10:29:42;;;;;;;;;12.67;10.00;;;;;13.52;73.92;100023.25;5018247;28;45342;-76
2021/12/26 10:32:21;;;;;;;;;9.00;8.33;;;;;13.48;74.07;100022.44;5017872;28;46931;-76
2021/12/26 10:34:54;;;;;;;;;11.00;10.00;;;;;13.47;74.08;100018.00;5000494;28;45374;-76
2021/12/26 10:37:30;;;;;;;;;11.00;9.67;;;;;13.48;73.99;100021.56;5017979;28;45313;-76
2021/12/26 10:40:01;;;;;;;;;8.67;7.67;;;;;13.49;74.23;100024.19;5017864;28;45164;-76
2021/12/26 10:42:31;;;;;;;;;11.00;8.33;;;;;13.48;74.29;100017.13;5017634;28;47310;-76
2021/12/26 10:44:58;;;;;;;;;11.33;7.00;;;;;13.50;73.99;100019.75;5017704;28;45278;-76
2021/12/26 10:47:28;;;;;;;;;12.67;8.33;;;;;13.54;74.07;100022.34;5017913;28;45195;-75
2021/12/26 10:50:12;;;;;;;;;8.67;8.67;;;;;13.58;74.25;100021.41;5131928;27;45327;-75
2021/12/26 10:52:53;;;;;;;;;4.00;3.67;;;;;13.59;73.85;100019.63;5114772;27;45309;-76
2021/12/26 10:55:23;;;;;;;;;10.00;7.00;;;;;13.58;74.31;100005.50;5081448;27;45319;-75
2021/12/26 10:57:50;;;;;;;;;7.67;7.67;;;;;13.56;73.82;100011.69;5093235;27;45212;-75
2021/12/26 11:00:23;;;;;;;;;8.67;7.33;;;;;13.57;74.30;100014.31;5094192;27;46771;-76
2021/12/26 11:03:01;;;;;;;;;10.00;8.00;;;;;13.55;74.54;100013.47;5094180;27;45402;-75
2021/12/26 11:05:35;;;;;;;;;14.33;9.00;;;;;13.52;74.53;100007.34;5094426;27;45468;-75
2021/12/26 11:08:03;;;;;;;;;10.67;8.00;;;;;13.48;75.31;100008.31;5094119;27;45485;-75
2021/12/26 11:10:32;;;;;;;;;12.67;6.00;;;;;13.45;75.92;100018.94;5094031;27;45964;-75
2021/12/26 11:12:59;;;;;;;;;8.67;8.33;;;;;13.38;76.62;100012.84;5093181;27;45334;-76
2021/12/26 11:15:29;;;;;;;;;8.00;7.00;;;;;13.31;76.49;100013.81;5093712;27;45531;-74